createdAt,value
2023-05-21T00:01:16.499Z,11.48
2023-05-21T00:03:45.958Z,9.57
2023-05-21T00:06:15.530Z,11.18
2023-05-21T00:08:43.457Z,9.82
2023-05-21T00:11:11.093Z,10.77
2023-05-21T00:13:38.722Z,10.40
2023-05-21T00:16:07.044Z,10.07
2023-05-21T00:18:35.246Z,10.05
2023-05-21T00:21:03.032Z,11.32
2023-05-21T00:23:32.837Z,11.38
2023-05-21T00:26:00.609Z,11.45
2023-05-21T00:28:28.260Z,11.00
2023-05-21T00:30:56.046Z,10.57
2023-05-21T00:33:26.427Z,10.98
2023-05-21T00:35:54.204Z,10.85
2023-05-21T00:38:22.134Z,11.50
2023-05-21T00:40:51.184Z,10.60
2023-05-21T00:43:18.826Z,10.77
2023-05-21T00:45:47.444Z,11.73
2023-05-21T00:48:16.028Z,11.23
2023-05-21T00:50:44.965Z,11.60
2023-05-21T00:53:13.470Z,10.68
2023-05-21T00:55:42.070Z,13.40
2023-05-21T00:58:11.135Z,11.07
2023-05-21T01:00:40.523Z,11.00
2023-05-21T01:03:08.344Z,11.32
2023-05-21T01:05:36.965Z,13.35
2023-05-21T01:08:05.640Z,13.25
2023-05-21T01:10:33.546Z,11.73
2023-05-21T01:13:01.500Z,11.35
2023-05-21T01:15:30.827Z,10.63
2023-05-21T01:17:58.586Z,11.80
2023-05-21T01:20:26.415Z,10.95
2023-05-21T01:22:56.520Z,12.65
2023-05-21T01:25:25.087Z,12.02
2023-05-21T01:27:52.940Z,11.52
2023-05-21T01:30:22.792Z,13.10
2023-05-21T01:32:56.277Z,10.82
2023-05-21T01:35:29.785Z,10.05
2023-05-21T01:38:03.971Z,11.98
2023-05-21T01:40:38.310Z,10.07
2023-05-21T01:43:08.220Z,11.35
2023-05-21T01:45:39.733Z,10.95
2023-05-21T01:48:09.309Z,12.03
2023-05-21T01:50:39.026Z,10.05
2023-05-21T01:53:08.052Z,10.50
2023-05-21T01:55:39.529Z,12.27
2023-05-21T01:58:07.221Z,13.00
2023-05-21T02:00:34.847Z,11.77
2023-05-21T02:03:02.669Z,10.25
2023-05-21T02:05:30.496Z,13.32
2023-05-21T02:08:00.572Z,13.15
2023-05-21T02:10:29.607Z,11.88
2023-05-21T02:12:57.201Z,11.15
2023-05-21T02:15:24.960Z,11.25
2023-05-21T02:17:53.073Z,10.80
2023-05-21T02:20:22.285Z,10.45
2023-05-21T02:22:50.484Z,10.20
2023-05-21T02:25:19.894Z,10.32
2023-05-21T02:27:53.912Z,13.25
2023-05-21T02:30:21.805Z,12.32
2023-05-21T02:32:50.781Z,10.15
2023-05-21T02:35:18.633Z,10.55
2023-05-21T02:37:46.238Z,10.90
2023-05-21T02:40:14.154Z,12.60
2023-05-21T02:42:42.178Z,10.50
2023-05-21T02:45:13.554Z,10.02
2023-05-21T02:47:41.443Z,13.80
2023-05-21T02:50:10.546Z,9.75
2023-05-21T02:52:38.151Z,10.30
2023-05-21T02:55:06.546Z,10.52
2023-05-21T02:57:34.176Z,10.65
2023-05-21T03:00:01.819Z,9.80
2023-05-21T03:02:30.963Z,9.77
2023-05-21T03:04:58.940Z,10.75
2023-05-21T03:07:26.779Z,9.95
2023-05-21T03:09:54.405Z,11.38
2023-05-21T03:12:22.038Z,12.15
2023-05-21T03:14:51.391Z,10.05
2023-05-21T03:17:20.580Z,10.57
2023-05-21T03:19:50.094Z,10.88
2023-05-21T03:22:17.743Z,10.70
2023-05-21T03:24:46.315Z,10.15
2023-05-21T03:27:14.048Z,10.55
2023-05-21T03:29:43.203Z,10.38
2023-05-21T03:32:10.935Z,10.30
2023-05-21T03:34:38.509Z,12.48
2023-05-21T03:37:07.648Z,11.07
2023-05-21T03:39:35.238Z,10.23
2023-05-21T03:42:02.875Z,10.13
2023-05-21T03:44:32.397Z,10.60
2023-05-21T03:47:00.144Z,10.02
2023-05-21T03:49:27.851Z,11.10
2023-05-21T03:51:55.509Z,10.52
2023-05-21T03:54:24.487Z,11.13
2023-05-21T03:56:52.095Z,10.82
2023-05-21T03:59:19.739Z,11.25
2023-05-21T04:01:47.331Z,14.73
2023-05-21T04:04:15.185Z,11.05
2023-05-21T04:06:42.852Z,10.98
2023-05-21T04:09:10.487Z,14.15
2023-05-21T04:11:39.407Z,14.18
2023-05-21T04:14:07.230Z,11.23
2023-05-21T04:16:35.994Z,11.05
2023-05-21T04:19:03.682Z,10.93
2023-05-21T04:21:32.219Z,12.80
2023-05-21T04:24:00.856Z,12.85
2023-05-21T04:26:29.506Z,11.30
2023-05-21T04:28:59.384Z,11.75
2023-05-21T04:31:27.086Z,11.45
2023-05-21T04:33:54.737Z,11.35
2023-05-21T04:36:22.366Z,11.20
2023-05-21T04:38:49.971Z,10.95
2023-05-21T04:41:18.928Z,10.73
2023-05-21T04:43:46.676Z,10.88
2023-05-21T04:46:15.818Z,11.25
2023-05-21T04:48:45.128Z,14.27
2023-05-21T04:51:12.752Z,11.30
2023-05-21T04:53:40.484Z,12.00
2023-05-21T04:56:09.261Z,10.90
2023-05-21T04:58:37.234Z,12.55
2023-05-21T05:01:05.031Z,10.95
2023-05-21T05:03:34.046Z,10.63
2023-05-21T05:06:04.289Z,12.63
2023-05-21T05:08:31.928Z,13.18
2023-05-21T05:10:59.564Z,10.38
2023-05-21T05:13:27.184Z,14.00
2023-05-21T05:15:54.949Z,10.63
2023-05-21T05:18:22.588Z,10.73
2023-05-21T05:20:51.568Z,10.35
2023-05-21T05:23:19.144Z,9.95
2023-05-21T05:25:46.832Z,10.85
2023-05-21T05:28:14.494Z,11.23
2023-05-21T05:30:42.137Z,12.43
2023-05-21T05:33:09.821Z,10.73
2023-05-21T05:35:37.733Z,10.25
2023-05-21T05:38:08.848Z,12.48
2023-05-21T05:40:36.487Z,8.57
2023-05-21T05:43:04.163Z,9.18
2023-05-21T05:45:31.762Z,9.15
2023-05-21T05:47:59.376Z,9.48
2023-05-21T05:50:27.058Z,9.98
2023-05-21T05:52:54.710Z,10.55
2023-05-21T05:55:25.128Z,8.38
2023-05-21T05:57:52.734Z,11.23
2023-05-21T06:00:20.912Z,9.52
2023-05-21T06:02:49.202Z,9.70
2023-05-21T06:05:17.249Z,7.95
2023-05-21T06:07:44.954Z,7.60
2023-05-21T06:10:12.597Z,7.03
2023-05-21T06:12:41.590Z,9.45
2023-05-21T06:15:10.301Z,8.13
2023-05-21T06:17:37.973Z,7.75
2023-05-21T06:20:07.250Z,8.65
2023-05-21T06:22:34.901Z,7.82
2023-05-21T06:25:02.502Z,8.02
2023-05-21T06:27:30.619Z,8.27
2023-05-21T06:29:59.531Z,7.00
2023-05-21T06:32:27.153Z,7.68
2023-05-21T06:34:54.763Z,7.60
2023-05-21T06:37:23.456Z,7.78
2023-05-21T06:39:52.402Z,6.20
2023-05-21T06:42:19.960Z,6.55
2023-05-21T06:44:47.517Z,6.45
2023-05-21T06:47:16.423Z,6.72
2023-05-21T06:49:43.997Z,6.97
2023-05-21T06:52:11.561Z,6.85
2023-05-21T06:54:39.240Z,6.53
2023-05-21T06:57:06.880Z,6.30
2023-05-21T06:59:34.636Z,6.10
2023-05-21T07:02:04.491Z,6.90
2023-05-21T07:04:35.263Z,6.35
2023-05-21T07:07:04.473Z,6.25
2023-05-21T07:09:32.161Z,6.00
2023-05-21T07:12:01.242Z,5.75
2023-05-21T07:14:28.851Z,5.78
2023-05-21T07:16:56.451Z,6.00
2023-05-21T07:19:24.103Z,5.90
2023-05-21T07:21:53.081Z,6.45
2023-05-21T07:24:21.113Z,6.53
2023-05-21T07:26:48.723Z,6.47
2023-05-21T07:29:16.363Z,7.05
2023-05-21T07:31:43.967Z,7.20
2023-05-21T07:34:11.544Z,6.95
2023-05-21T07:36:39.137Z,5.75
2023-05-21T07:39:08.364Z,6.20
2023-05-21T07:41:36.080Z,5.35
2023-05-21T07:44:03.716Z,5.80
2023-05-21T07:46:31.334Z,5.38
2023-05-21T07:48:58.993Z,5.80
2023-05-21T07:51:27.058Z,6.18
2023-05-21T07:53:55.381Z,5.90
2023-05-21T07:56:24.628Z,5.63
2023-05-21T07:58:52.185Z,5.40
2023-05-21T08:01:19.833Z,5.63
2023-05-21T08:03:47.529Z,5.85
2023-05-21T08:06:15.237Z,5.43
2023-05-21T08:08:42.831Z,5.78
2023-05-21T08:11:10.426Z,5.43
2023-05-21T08:13:39.355Z,6.68
2023-05-21T08:16:07.664Z,6.07
2023-05-21T08:18:35.279Z,6.55
2023-05-21T08:21:02.968Z,6.78
2023-05-21T08:23:30.536Z,5.65
2023-05-21T08:25:58.258Z,5.55
2023-05-21T08:28:27.510Z,5.18
2023-05-21T08:30:56.469Z,5.90
2023-05-21T08:33:24.074Z,6.43
2023-05-21T08:35:51.660Z,6.00
2023-05-21T08:38:19.235Z,6.30
2023-05-21T08:40:48.071Z,6.00
2023-05-21T08:43:16.541Z,6.57
2023-05-21T08:45:46.415Z,6.82
2023-05-21T08:48:17.439Z,5.45
2023-05-21T08:50:46.148Z,6.40
2023-05-21T08:53:26.653Z,5.47
2023-05-21T08:55:59.838Z,5.57
2023-05-21T08:58:28.084Z,6.53
2023-05-21T09:00:57.541Z,6.70
2023-05-21T09:03:27.427Z,5.93
2023-05-21T09:05:56.145Z,7.13
2023-05-21T09:08:30.774Z,5.35
2023-05-21T09:10:58.338Z,5.38
2023-05-21T09:13:27.446Z,5.90
2023-05-21T09:15:55.044Z,6.35
2023-05-21T09:18:22.666Z,5.68
2023-05-21T09:20:54.033Z,6.30
2023-05-21T09:23:21.649Z,5.63
2023-05-21T09:25:51.918Z,5.68
2023-05-21T09:28:21.319Z,5.35
2023-05-21T09:30:50.567Z,6.70
2023-05-21T09:33:26.578Z,5.85
2023-05-21T09:35:55.502Z,5.93
2023-05-21T09:38:24.510Z,5.13
2023-05-21T09:40:52.103Z,5.53
2023-05-21T09:43:19.726Z,4.85
2023-05-21T09:45:54.281Z,5.70
2023-05-21T09:48:35.697Z,5.85
2023-05-21T09:51:16.004Z,5.90
2023-05-21T09:53:49.842Z,5.50
2023-05-21T09:56:20.071Z,6.15
2023-05-21T09:58:47.682Z,6.00
2023-05-21T10:01:15.348Z,6.25
2023-05-21T10:03:45.508Z,5.25
2023-05-21T10:06:15.798Z,5.65
2023-05-21T10:08:48.843Z,5.63
2023-05-21T10:11:17.730Z,6.10
2023-05-21T10:13:51.939Z,6.20
2023-05-21T10:16:19.987Z,5.40
2023-05-21T10:18:49.600Z,6.47
2023-05-21T10:21:19.401Z,5.75
2023-05-21T10:23:47.350Z,5.53
2023-05-21T10:26:15.453Z,5.20
2023-05-21T10:28:43.872Z,6.18
2023-05-21T10:31:13.147Z,6.15
2023-05-21T10:33:43.176Z,5.97
2023-05-21T10:36:11.127Z,6.20
2023-05-21T10:38:41.571Z,6.15
2023-05-21T10:41:10.664Z,6.07
2023-05-21T10:43:57.460Z,5.40
2023-05-21T10:47:06.500Z,5.40
2023-05-21T10:49:50.129Z,5.10
2023-05-21T10:52:32.477Z,5.85
2023-05-21T10:55:23.531Z,5.45
2023-05-21T10:58:14.933Z,6.18
2023-05-21T11:00:44.320Z,5.35
2023-05-21T11:03:15.949Z,5.13
2023-05-21T11:05:53.818Z,5.43
2023-05-21T11:08:31.656Z,5.88
2023-05-21T11:11:00.654Z,6.55
2023-05-21T11:13:31.308Z,5.78
2023-05-21T11:16:08.963Z,6.18
2023-05-21T11:18:58.091Z,5.85
2023-05-21T11:21:28.483Z,5.70
2023-05-21T11:23:57.322Z,6.47
2023-05-21T11:26:28.281Z,7.10
2023-05-21T11:29:08.490Z,7.30
2023-05-21T11:31:39.484Z,7.95
2023-05-21T11:34:12.852Z,5.53
2023-05-21T11:36:42.125Z,5.00
2023-05-21T11:39:11.000Z,5.38
2023-05-21T11:42:01.609Z,5.78
2023-05-21T11:44:41.198Z,6.15
2023-05-21T11:47:10.217Z,5.28
2023-05-21T11:49:39.122Z,5.95
2023-05-21T11:52:09.404Z,5.43
2023-05-21T11:54:53.089Z,5.40
2023-05-21T11:57:41.226Z,5.30
2023-05-21T12:00:22.040Z,4.97
2023-05-21T12:02:56.120Z,4.70
2023-05-21T12:05:27.416Z,5.25
2023-05-21T12:07:58.558Z,5.93
2023-05-21T12:10:39.920Z,5.50
2023-05-21T12:13:21.352Z,5.23
2023-05-21T12:16:00.893Z,4.80
2023-05-21T12:18:41.486Z,5.65
2023-05-21T12:21:41.397Z,5.53
2023-05-21T12:24:16.468Z,4.78
2023-05-21T12:26:52.269Z,5.53
2023-05-21T12:32:50.487Z,4.90
2023-05-21T12:35:28.265Z,5.35
2023-05-21T12:38:04.577Z,5.28
2023-05-21T12:40:41.199Z,5.28
2023-05-21T12:43:10.114Z,5.22
2023-05-21T12:45:41.065Z,5.00
2023-05-21T12:48:09.206Z,5.55
2023-05-21T12:50:41.736Z,5.50
2023-05-21T12:53:11.067Z,5.50
2023-05-21T12:55:40.552Z,5.63
2023-05-21T12:58:09.567Z,5.68
2023-05-21T13:00:39.809Z,5.60
2023-05-21T13:03:08.446Z,5.18
2023-05-21T13:05:36.728Z,6.05
2023-05-21T13:08:04.850Z,5.18
2023-05-21T13:10:33.311Z,5.65
2023-05-21T13:13:01.844Z,5.70
2023-05-21T13:15:30.170Z,5.50
2023-05-21T13:18:01.489Z,6.20
2023-05-21T13:20:30.611Z,6.72
2023-05-21T13:22:59.152Z,5.82
2023-05-21T13:25:29.916Z,6.28
2023-05-21T13:27:59.166Z,6.15
2023-05-21T13:30:27.523Z,6.20
2023-05-21T13:32:56.625Z,6.28
2023-05-21T13:35:26.763Z,5.95
2023-05-21T13:37:58.787Z,6.75
2023-05-21T13:40:27.870Z,6.07
2023-05-21T13:42:56.622Z,6.40
2023-05-21T13:45:29.593Z,5.88
2023-05-21T13:48:01.777Z,6.03
2023-05-21T13:53:05.553Z,6.43
2023-05-21T13:55:37.418Z,5.45
2023-05-21T13:58:06.715Z,6.95
2023-05-21T14:00:37.459Z,5.18
2023-05-21T14:03:10.189Z,5.00
2023-05-21T14:05:42.450Z,4.70
2023-05-21T14:08:10.625Z,4.38
2023-05-21T14:10:38.970Z,4.20
2023-05-21T14:13:19.485Z,4.57
2023-05-21T14:15:48.579Z,3.90
2023-05-21T14:18:16.659Z,4.40
2023-05-21T14:21:17.843Z,3.65
2023-05-21T14:24:01.155Z,3.92
2023-05-21T14:26:29.533Z,4.35
2023-05-21T14:28:57.223Z,4.25
2023-05-21T14:31:25.981Z,4.15
2023-05-21T14:33:54.017Z,4.53
2023-05-21T14:36:23.564Z,4.20
2023-05-21T14:38:51.656Z,4.95
2023-05-21T14:41:26.835Z,4.43
2023-05-21T14:43:55.408Z,4.45
2023-05-21T14:46:23.427Z,5.05
2023-05-21T14:48:51.856Z,4.95
2023-05-21T14:51:20.441Z,5.55
2023-05-21T14:53:51.503Z,5.22
2023-05-21T14:56:21.742Z,4.80
2023-05-21T14:58:49.641Z,5.32
2023-05-21T15:01:17.742Z,5.45
2023-05-21T15:03:45.786Z,5.28
2023-05-21T15:06:13.779Z,5.00
2023-05-21T15:08:41.539Z,4.75
2023-05-21T15:11:11.592Z,5.32
2023-05-21T15:13:45.832Z,4.55
2023-05-21T15:16:13.443Z,5.70
2023-05-21T15:18:41.068Z,5.10
2023-05-21T15:21:08.609Z,5.05
2023-05-21T15:23:39.822Z,4.68
2023-05-21T15:26:09.629Z,5.73
2023-05-21T15:28:39.671Z,4.85
2023-05-21T15:31:15.125Z,4.47
2023-05-21T15:33:44.713Z,6.25
2023-05-21T15:36:12.804Z,5.65
2023-05-21T15:38:46.338Z,4.65
2023-05-21T15:42:13.187Z,4.90
2023-05-21T15:45:50.573Z,5.65
2023-05-21T15:52:23.427Z,5.43
2023-05-21T20:06:48.936Z,9.65
2023-05-21T20:09:21.828Z,7.97
2023-05-21T20:11:51.062Z,26.65
2023-05-21T20:14:19.689Z,18.85
2023-05-21T20:16:48.497Z,20.27
2023-05-21T20:19:17.031Z,9.32
2023-05-21T20:22:52.685Z,14.85
2023-05-21T20:26:07.936Z,8.98
2023-05-21T20:29:10.387Z,8.02
2023-05-21T23:21:16.156Z,8.15
2023-05-21T23:23:43.743Z,8.10
2023-05-21T23:26:11.450Z,7.90
2023-05-21T23:28:39.595Z,8.35
2023-05-21T23:31:07.196Z,8.15
2023-05-21T23:33:34.857Z,7.95
2023-05-21T23:36:02.401Z,7.75
2023-05-21T23:38:31.235Z,8.02
2023-05-21T23:40:58.777Z,7.65
2023-05-21T23:43:26.428Z,8.05
2023-05-21T23:45:53.982Z,8.13
2023-05-21T23:48:21.649Z,7.88
2023-05-21T23:50:49.402Z,7.90
2023-05-21T23:53:17.035Z,8.63
2023-05-21T23:55:46.055Z,8.15
2023-05-21T23:58:13.733Z,11.02
